Dumont, IA

10:22 PM CST on January 31, 2015 (GMT -0600)
Beeds Addition | Change Station
CLOSE
Current Station
Personal Weather Station
Location: Hampton, IA
Elevation: 1145 ft
Nearby Weather Stations
Active Advisory: Winter Storm Warning

Elev 1145 ft 42.74 °N, 93.20 °W | Updated 4 seconds ago

Snow
Snow
28.2 °F
Feels Like 22 °F
N
6.0
Wind Variable Wind from NE
Gusts 10.7 mph

Today
High -- | Low -- °F
--% Chance of Precip.
Yesterday
High -- | Low -- °F
Precip. -- in
7:27 AM 5:23 PM
Waxing Gibbous, 93% visible
Pressure 30.01 in
Visibility 0.8 miles
Clouds Overcast 400 ft
Windchill 22 °F
Dew Point 25 °F
Humidity 86%
Rainfall 0.00 in
Snow Depth Not available.
UV 0 out of 12
Pollen .10 out of 12
Air Quality Not available.
Flu Activity Not available.
METAR KIFA 010415Z AUTO 07006KT 3/4SM SN OVC004 00/00 A3001 RMK AO2 P0001 T00011001

More Conditions Fewer Conditions

Pressure 30.01 in
Visibility 0.8 miles
Clouds Overcast 400 ft
Windchill 22 °F
Dew Point 25 °F
Humidity 86%
Rainfall 0.00 in
Snow Depth Not available.
UV 0 out of 12
Pollen .10 out of 12
Air Quality Not available.
Flu Activity Not available.
METAR KIFA 010415Z AUTO 07006KT 3/4SM SN OVC004 00/00 A3001 RMK AO2 P0001 T00011001

More Conditions Fewer Conditions

10-Day Weather Forecast

Almanac

Astronomy

Jan. 31, 2015 Rise Set
Actual Time
Civil Twilight
Nautical Twilight
Astronomical Twilight
Moon
Length of Visible Light
Length of Day
Tomorrow will be .
, % of the Moon is Illuminated

Today's Extremes

State Highs State Lows

Community

WunderPhotos

Upload Photos

1,792,308 photos uploaded!

WunderBlogs® & News

Nearby

Air Quality

  Air Quality AQ Index Pollutant
Not available.

Snow Depth

Station Depth Elevation

Earthquake Activity

City Distance Mag. Time & Date
Minimum magnitude displayed is 2.5.

Coastal Water Temperatures

Place Temperature

Nearby Weather Stations